Terminal Aerodrome Forecast
Issued by NWS Grand Forks, ND

Home | Current Version | Previous Version | Graphics & Text | Print | Product List | Glossary On
Versions: 1 2 3 4 5 6 7 8 9 10 11 12 13 14 15
695
FTUS43 KFGF 202332
TAFGFK
TAF
KGFK 202332Z 2100/2124 15008KT 5SM BR BKN006
     FM211200 12007KT 5SM BR OVC003
     FM211700 11007KT 3SM BR OVC008
     FM212100 08006KT 5SM BR OVC008=

USA.gov is the U.S. government's official web portal to all federal, state and local government web resources and services.